createdAt,value
2022-08-02T00:00:35.139Z,1.60
2022-08-02T00:03:03.169Z,1.70
2022-08-02T00:05:31.244Z,1.60
2022-08-02T00:08:00.798Z,1.70
2022-08-02T00:10:29.066Z,1.70
2022-08-02T00:13:01.186Z,1.50
2022-08-02T00:15:29.179Z,1.45
2022-08-02T00:17:57.310Z,1.70
2022-08-02T00:20:25.359Z,1.85
2022-08-02T00:22:53.379Z,1.40
2022-08-02T00:25:22.897Z,1.85
2022-08-02T00:27:50.865Z,1.45
2022-08-02T00:30:18.977Z,1.70
2022-08-02T00:32:47.179Z,1.52
2022-08-02T00:35:15.549Z,1.70
2022-08-02T00:37:43.762Z,1.80
2022-08-02T00:40:12.881Z,1.92
2022-08-02T00:42:44.254Z,1.95
2022-08-02T00:45:12.472Z,1.90
2022-08-02T00:47:40.411Z,2.13
2022-08-02T00:50:09.056Z,1.85
2022-08-02T00:52:37.080Z,1.65
2022-08-02T00:55:05.703Z,1.83
2022-08-02T00:57:33.726Z,1.92
2022-08-02T01:00:03.338Z,1.98
2022-08-02T01:02:31.580Z,1.70
2022-08-02T01:04:59.519Z,1.90
2022-08-02T01:07:28.116Z,2.10
2022-08-02T01:09:56.088Z,2.15
2022-08-02T01:12:24.184Z,2.78
2022-08-02T01:14:53.423Z,2.08
2022-08-02T01:17:31.504Z,2.40
2022-08-02T01:20:09.743Z,2.90
2022-08-02T01:23:01.517Z,2.47
2022-08-02T01:26:04.368Z,2.40
2022-08-02T01:28:39.692Z,2.83
2022-08-02T01:31:15.771Z,2.50
2022-08-02T01:33:49.733Z,2.70
2022-08-02T01:36:19.960Z,2.72
2022-08-02T01:38:50.391Z,2.40
2022-08-02T01:41:21.227Z,2.65
2022-08-02T01:43:55.124Z,2.83
2022-08-02T01:46:24.159Z,2.40
2022-08-02T01:48:54.998Z,2.88
2022-08-02T01:51:45.131Z,3.03
2022-08-02T01:54:15.655Z,2.67
2022-08-02T01:56:45.735Z,2.90
2022-08-02T01:59:19.906Z,2.80
2022-08-02T02:01:50.819Z,2.72
2022-08-02T02:04:21.583Z,2.65
2022-08-02T02:06:51.609Z,2.70
2022-08-02T02:09:21.276Z,3.03
2022-08-02T02:12:12.050Z,2.47
2022-08-02T02:14:42.127Z,2.78
2022-08-02T02:17:50.769Z,2.75
2022-08-02T02:20:14.455Z,2.80
2022-08-02T02:22:42.578Z,2.88
2022-08-02T02:25:11.983Z,3.03
2022-08-02T02:27:52.533Z,2.75
2022-08-02T02:30:23.102Z,2.75
2022-08-02T02:32:53.973Z,2.80
2022-08-02T02:35:24.044Z,2.95
2022-08-02T02:37:54.125Z,3.15
2022-08-02T02:40:24.550Z,2.90
2022-08-02T02:42:53.296Z,2.67
2022-08-02T02:45:23.227Z,2.63
2022-08-02T02:47:52.172Z,2.83
2022-08-02T02:50:21.745Z,3.03
2022-08-02T02:52:50.172Z,3.03
2022-08-02T02:55:21.923Z,2.90
2022-08-02T02:57:50.170Z,2.83
2022-08-02T03:00:18.617Z,2.60
2022-08-02T03:02:51.459Z,3.03
2022-08-02T03:05:19.546Z,2.75
2022-08-02T03:07:47.550Z,2.80
2022-08-02T03:10:15.571Z,2.60
2022-08-02T03:12:43.721Z,3.17
2022-08-02T03:15:15.284Z,3.25
2022-08-02T03:17:45.462Z,2.85
2022-08-02T03:20:17.573Z,3.50
2022-08-02T03:22:46.449Z,2.58
2022-08-02T03:25:16.084Z,2.58
2022-08-02T03:27:44.121Z,2.92
2022-08-02T03:30:14.265Z,3.50
2022-08-02T03:32:44.140Z,3.20
2022-08-02T03:35:23.342Z,3.35
2022-08-02T03:37:55.296Z,2.83
2022-08-02T03:40:24.547Z,2.75
2022-08-02T03:42:53.053Z,2.92
2022-08-02T03:45:21.991Z,2.97
2022-08-02T03:47:50.820Z,2.90
2022-08-02T03:50:22.998Z,2.95
2022-08-02T03:52:52.180Z,3.00
2022-08-02T03:55:20.346Z,3.05
2022-08-02T03:57:48.580Z,2.50
2022-08-02T04:00:21.147Z,2.83
2022-08-02T04:02:49.827Z,3.83
2022-08-02T04:05:19.802Z,2.80
2022-08-02T04:08:32.682Z,3.15
2022-08-02T04:10:51.430Z,2.97
2022-08-02T04:13:22.701Z,2.75
2022-08-02T04:15:55.253Z,2.80
2022-08-02T04:18:27.355Z,2.92
2022-08-02T04:20:58.009Z,2.80
2022-08-02T04:23:27.952Z,2.72
2022-08-02T04:26:01.571Z,2.85
2022-08-02T04:28:33.667Z,2.47
2022-08-02T04:31:02.304Z,2.75
2022-08-02T04:33:31.010Z,3.00
2022-08-02T04:36:00.442Z,3.00
2022-08-02T04:38:28.515Z,3.28
2022-08-02T04:40:57.297Z,3.50
2022-08-02T04:43:25.555Z,3.00
2022-08-02T04:45:54.899Z,3.45
2022-08-02T04:48:24.091Z,3.03
2022-08-02T04:50:52.595Z,3.38
2022-08-02T04:53:22.002Z,3.70
2022-08-02T04:55:50.044Z,3.90
2022-08-02T04:58:39.459Z,3.70
2022-08-02T05:01:06.209Z,4.28
2022-08-02T05:03:34.417Z,3.25
2022-08-02T05:06:02.405Z,3.90
2022-08-02T05:08:32.001Z,3.88
2022-08-02T05:11:00.046Z,3.85
2022-08-02T05:13:28.069Z,3.97
2022-08-02T05:15:56.021Z,3.83
2022-08-02T05:18:23.995Z,3.63
2022-08-02T05:20:56.451Z,3.78
2022-08-02T05:23:26.182Z,3.80
2022-08-02T05:25:55.774Z,3.45
2022-08-02T05:28:23.724Z,4.00
2022-08-02T05:30:51.995Z,3.78
2022-08-02T05:33:20.046Z,3.50
2022-08-02T05:35:48.061Z,3.65
2022-08-02T05:38:16.106Z,3.80
2022-08-02T05:40:54.586Z,3.58
2022-08-02T05:43:24.506Z,3.42
2022-08-02T05:45:54.598Z,3.67
2022-08-02T05:48:26.422Z,3.70
2022-08-02T05:51:04.112Z,3.60
2022-08-02T05:53:39.990Z,3.47
2022-08-02T05:56:19.094Z,3.15
2022-08-02T05:58:54.228Z,2.90
2022-08-02T06:01:30.078Z,2.10
2022-08-02T06:04:01.234Z,2.65
2022-08-02T06:06:33.573Z,2.53
2022-08-02T06:09:04.505Z,2.13
2022-08-02T06:11:37.581Z,2.13
2022-08-02T06:14:08.232Z,2.38
2022-08-02T06:16:37.615Z,2.03
2022-08-02T06:19:12.896Z,1.70
2022-08-02T06:22:31.191Z,2.00
2022-08-02T06:24:31.877Z,1.70
2022-08-02T06:27:01.711Z,1.85
2022-08-02T06:29:38.469Z,1.92
2022-08-02T06:32:08.975Z,2.08
2022-08-02T06:34:40.888Z,1.90
2022-08-02T06:37:18.725Z,1.73
2022-08-02T06:39:50.120Z,1.88
2022-08-02T06:42:27.350Z,1.40
2022-08-02T06:44:57.936Z,1.70
2022-08-02T06:47:26.738Z,1.70
2022-08-02T06:49:55.181Z,1.60
2022-08-02T06:52:30.029Z,1.77
2022-08-02T06:54:59.812Z,1.67
2022-08-02T06:57:28.219Z,1.80
2022-08-02T06:59:58.441Z,1.70
2022-08-02T07:02:29.401Z,1.75
2022-08-02T07:04:57.528Z,1.60
2022-08-02T07:07:25.656Z,1.60
2022-08-02T07:09:56.765Z,1.27
2022-08-02T07:12:31.124Z,1.48
2022-08-02T07:15:01.421Z,1.60
2022-08-02T07:17:29.860Z,1.77
2022-08-02T07:19:58.717Z,1.70
2022-08-02T07:22:28.322Z,1.60
2022-08-02T07:24:57.423Z,1.70
2022-08-02T07:27:25.972Z,1.70
2022-08-02T07:29:54.752Z,1.70
2022-08-02T07:32:28.065Z,1.85
2022-08-02T07:34:57.197Z,1.60
2022-08-02T07:37:53.388Z,1.75
2022-08-02T07:40:20.005Z,1.67
2022-08-02T07:42:50.017Z,1.42
2022-08-02T07:45:18.484Z,1.65
2022-08-02T07:47:48.141Z,1.92
2022-08-02T07:50:18.757Z,1.83
2022-08-02T07:52:47.230Z,1.60
2022-08-02T07:55:16.460Z,1.65
2022-08-02T07:57:46.651Z,1.60
2022-08-02T08:00:17.452Z,1.73
2022-08-02T08:02:47.474Z,1.70
2022-08-02T08:05:15.948Z,1.70
2022-08-02T08:07:45.108Z,1.60
2022-08-02T08:10:13.242Z,1.60
2022-08-02T08:12:41.324Z,1.60
2022-08-02T08:15:10.353Z,1.50
2022-08-02T08:17:38.812Z,1.50
2022-08-02T08:20:11.746Z,1.60
2022-08-02T08:22:42.163Z,1.40
2022-08-02T08:25:10.488Z,1.10
2022-08-02T08:27:48.320Z,1.42
2022-08-02T08:30:16.482Z,1.33
2022-08-02T08:32:44.470Z,1.40
2022-08-02T08:35:13.897Z,1.85
2022-08-02T08:37:41.877Z,1.60
2022-08-02T08:40:11.190Z,1.40
2022-08-02T08:42:40.829Z,1.92
2022-08-02T08:45:10.071Z,4.30
2022-08-02T08:47:39.890Z,6.60
2022-08-02T08:50:17.858Z,1.77
2022-08-02T08:52:54.932Z,1.30
2022-08-02T08:55:24.947Z,1.50
2022-08-02T08:57:53.919Z,1.35
2022-08-02T09:00:22.006Z,1.35
2022-08-02T09:02:51.280Z,0.90
2022-08-02T09:05:19.428Z,1.50
2022-08-02T09:07:51.281Z,1.50
2022-08-02T09:10:40.811Z,1.40
2022-08-02T09:13:31.370Z,1.27
2022-08-02T09:16:12.731Z,1.17
2022-08-02T09:18:43.942Z,1.02
2022-08-02T09:21:13.020Z,1.15
2022-08-02T09:23:44.063Z,1.17
2022-08-02T09:26:13.651Z,1.10
2022-08-02T09:28:43.892Z,1.27
2022-08-02T09:31:13.620Z,1.05
2022-08-02T09:33:43.538Z,1.27
2022-08-02T09:36:13.276Z,1.08
2022-08-02T09:38:55.044Z,1.20
2022-08-02T09:41:24.130Z,1.02
2022-08-02T09:44:05.477Z,0.88
2022-08-02T09:46:38.892Z,0.75
2022-08-02T09:49:09.743Z,0.90
2022-08-02T09:51:39.781Z,1.20
2022-08-02T09:54:12.020Z,1.23
2022-08-02T09:56:49.542Z,1.08
2022-08-02T09:59:18.591Z,1.20
2022-08-02T10:01:51.691Z,1.00
2022-08-02T10:04:30.650Z,1.40
2022-08-02T10:07:03.805Z,1.10
2022-08-02T10:09:34.659Z,1.08
2022-08-02T10:12:04.925Z,1.40
2022-08-02T10:14:34.960Z,1.20
2022-08-02T10:17:05.084Z,1.13
2022-08-02T10:20:00.361Z,1.35
2022-08-02T10:22:24.222Z,1.48
2022-08-02T10:24:54.885Z,1.17
2022-08-02T10:27:25.223Z,1.30
2022-08-02T10:29:56.074Z,0.90
2022-08-02T10:32:31.011Z,1.27
2022-08-02T10:35:23.198Z,0.80
2022-08-02T10:37:55.616Z,0.77
2022-08-02T10:40:26.934Z,0.88
2022-08-02T10:42:59.371Z,0.80
2022-08-02T10:45:29.757Z,0.85
2022-08-02T10:47:59.317Z,0.95
2022-08-02T10:50:55.674Z,0.90
2022-08-02T10:53:28.925Z,0.90
2022-08-02T10:56:00.589Z,0.90
2022-08-02T10:58:32.302Z,1.00
2022-08-02T11:01:05.551Z,0.85
2022-08-02T11:03:40.860Z,1.15
2022-08-02T11:06:24.606Z,0.80
2022-08-02T11:09:32.528Z,0.95
2022-08-02T11:12:05.129Z,1.20
2022-08-02T11:14:35.520Z,1.10
2022-08-02T11:17:11.625Z,1.20
2022-08-02T11:20:16.230Z,0.93
2022-08-02T11:22:45.540Z,0.93
2022-08-02T11:28:25.970Z,0.77
2022-08-02T11:31:02.819Z,0.88
2022-08-02T11:33:36.048Z,0.57
2022-08-02T11:36:07.115Z,0.95
2022-08-02T11:38:35.622Z,0.80
2022-08-02T11:41:06.249Z,0.85
2022-08-02T11:43:41.150Z,1.20
2022-08-02T11:46:15.075Z,0.60
2022-08-02T11:48:44.573Z,0.60
2022-08-02T11:51:14.167Z,0.60
2022-08-02T11:53:47.840Z,0.52
2022-08-02T11:56:17.905Z,0.70
2022-08-02T11:59:04.918Z,0.77
2022-08-02T12:01:44.914Z,0.70
2022-08-02T12:04:19.497Z,0.70
2022-08-02T12:06:58.873Z,0.88
2022-08-02T12:09:28.381Z,0.75
2022-08-02T12:11:57.957Z,0.80
2022-08-02T12:14:29.689Z,0.90
2022-08-02T12:17:15.098Z,1.00
2022-08-02T12:19:43.888Z,0.95
2022-08-02T12:22:16.747Z,0.60
2022-08-02T12:24:48.401Z,0.65
2022-08-02T12:27:33.340Z,0.70
2022-08-02T12:30:08.804Z,0.65
2022-08-02T12:32:37.488Z,0.75
2022-08-02T12:35:08.847Z,1.20
2022-08-02T12:37:38.180Z,0.80
2022-08-02T12:40:25.799Z,0.80
2022-08-02T12:43:01.034Z,0.98
2022-08-02T12:45:41.162Z,1.05
2022-08-02T12:48:10.904Z,0.80
2022-08-02T12:50:39.852Z,0.80
2022-08-02T12:53:10.967Z,0.70
2022-08-02T12:56:00.490Z,0.85
2022-08-02T12:58:31.021Z,1.10
2022-08-02T13:01:02.519Z,0.60
2022-08-02T13:04:07.582Z,0.90
2022-08-02T13:09:29.359Z,0.70
2022-08-02T13:11:57.658Z,0.90
2022-08-02T13:14:25.669Z,0.73
2022-08-02T13:16:57.221Z,0.52
2022-08-02T13:19:25.491Z,0.57
2022-08-02T13:22:03.678Z,0.70
2022-08-02T13:24:55.733Z,0.70
2022-08-02T13:27:26.178Z,0.88
2022-08-02T13:29:56.278Z,0.85
2022-08-02T13:32:27.905Z,0.70
2022-08-02T13:34:56.768Z,1.00
2022-08-02T13:37:25.400Z,1.02
2022-08-02T13:40:18.796Z,1.20
2022-08-02T13:42:42.404Z,0.80
2022-08-02T13:45:12.859Z,0.85
2022-08-02T13:48:04.554Z,0.70
2022-08-02T13:50:33.503Z,0.70
2022-08-02T13:53:01.563Z,0.63
2022-08-02T13:55:29.881Z,0.50
2022-08-02T13:57:58.046Z,0.60
2022-08-02T14:00:34.667Z,0.60
2022-08-02T14:03:06.981Z,0.90
2022-08-02T14:05:46.848Z,0.88
2022-08-02T14:08:17.897Z,0.80
2022-08-02T14:10:47.003Z,0.88
2022-08-02T14:13:15.014Z,0.70
2022-08-02T14:15:44.053Z,0.70
2022-08-02T14:18:14.891Z,0.70
2022-08-02T14:20:43.390Z,0.73
2022-08-02T14:23:11.584Z,0.60
2022-08-02T14:25:40.976Z,0.60
2022-08-02T14:28:09.295Z,0.63
2022-08-02T14:30:37.294Z,0.50
2022-08-02T14:33:05.530Z,0.90
2022-08-02T14:35:35.233Z,2.95
2022-08-02T14:38:03.263Z,0.63
2022-08-02T14:40:32.038Z,0.50
2022-08-02T14:43:06.160Z,0.60
2022-08-02T14:45:39.992Z,0.40
2022-08-02T14:48:10.734Z,0.70
2022-08-02T14:50:40.411Z,0.65
2022-08-02T14:53:12.743Z,0.85
2022-08-02T14:55:42.277Z,0.63
2022-08-02T14:58:11.060Z,0.90
2022-08-02T15:00:41.157Z,0.90
2022-08-02T15:03:10.515Z,0.60
2022-08-02T15:05:40.102Z,0.80
2022-08-02T15:08:08.213Z,0.60
2022-08-02T15:10:36.275Z,0.88
2022-08-02T15:13:04.333Z,0.70
2022-08-02T15:15:32.585Z,0.60
2022-08-02T15:18:11.088Z,0.70
2022-08-02T15:20:41.464Z,0.82
2022-08-02T15:23:12.912Z,0.88
2022-08-02T15:25:42.527Z,1.17
2022-08-02T15:28:10.857Z,0.98
2022-08-02T15:30:39.514Z,1.20
2022-08-02T15:33:07.809Z,1.05
2022-08-02T15:35:35.789Z,0.52
2022-08-02T15:38:05.213Z,1.00
2022-08-02T15:40:33.234Z,1.08
2022-08-02T15:43:01.451Z,2.80
2022-08-02T15:45:29.875Z,1.35
2022-08-02T15:47:58.044Z,1.70
2022-08-02T15:50:26.216Z,1.20
2022-08-02T15:52:54.210Z,1.30
2022-08-02T15:55:24.195Z,0.70
2022-08-02T15:57:52.213Z,0.68
2022-08-02T16:00:20.621Z,0.93
2022-08-02T16:02:49.055Z,0.82
2022-08-02T16:05:18.344Z,0.75
2022-08-02T16:07:46.656Z,1.20
2022-08-02T16:10:14.861Z,0.95
2022-08-02T16:12:44.544Z,1.02
2022-08-02T16:15:13.676Z,0.80
2022-08-02T16:17:53.844Z,0.98
2022-08-02T16:20:23.247Z,0.77
2022-08-02T16:22:51.688Z,0.70
2022-08-02T16:25:19.811Z,0.60
2022-08-02T16:27:57.560Z,0.85
2022-08-02T16:30:34.776Z,0.80
2022-08-02T16:33:03.300Z,0.90
2022-08-02T16:35:31.375Z,1.08
2022-08-02T16:37:59.384Z,1.00
2022-08-02T16:40:27.373Z,0.88
2022-08-02T16:42:56.750Z,0.90
2022-08-02T16:45:24.912Z,1.02
2022-08-02T16:47:57.299Z,1.33
2022-08-02T16:50:31.614Z,0.90
2022-08-02T16:52:59.658Z,1.10
2022-08-02T16:55:35.227Z,1.13
2022-08-02T16:58:04.773Z,1.17
2022-08-02T17:00:38.423Z,1.27
2022-08-02T17:03:14.425Z,0.90
2022-08-02T17:05:56.453Z,1.00
2022-08-02T17:08:31.663Z,1.20
2022-08-02T17:11:04.018Z,1.27
2022-08-02T17:13:34.355Z,1.45
2022-08-02T17:16:25.865Z,8.77
2022-08-02T17:18:55.513Z,13.48
2022-08-02T17:21:23.711Z,1.40
2022-08-02T17:24:05.441Z,1.70
2022-08-02T17:26:36.440Z,2.33
2022-08-02T17:29:14.089Z,2.58
2022-08-02T17:32:05.087Z,1.80
2022-08-02T17:34:33.613Z,1.70
2022-08-02T17:37:02.143Z,2.90
2022-08-02T17:39:44.402Z,2.70
2022-08-02T17:42:23.698Z,2.10
2022-08-02T17:44:54.735Z,2.60
2022-08-02T17:47:30.998Z,2.22
2022-08-02T17:49:59.922Z,2.10
2022-08-02T17:52:52.002Z,1.80
2022-08-02T17:55:16.848Z,2.40
2022-08-02T17:57:58.142Z,3.28
2022-08-02T18:00:33.633Z,3.72
2022-08-02T18:03:05.841Z,3.40
2022-08-02T18:05:40.430Z,3.45
2022-08-02T18:08:22.773Z,3.78
2022-08-02T18:10:52.473Z,3.55
2022-08-02T18:13:20.513Z,3.53
2022-08-02T18:15:50.047Z,3.50
2022-08-02T18:18:19.107Z,3.53
2022-08-02T18:20:54.623Z,3.15
2022-08-02T18:23:23.867Z,3.25
2022-08-02T18:25:55.199Z,2.55
2022-08-02T18:28:26.666Z,2.85
2022-08-02T18:30:56.936Z,2.78
2022-08-02T18:33:58.636Z,2.75
2022-08-02T18:36:24.645Z,2.92
2022-08-02T18:38:53.695Z,2.95
2022-08-02T18:41:23.406Z,3.00
2022-08-02T18:43:54.512Z,3.33
2022-08-02T18:46:30.157Z,3.13
2022-08-02T18:49:06.621Z,2.78
2022-08-02T18:51:49.253Z,2.92
2022-08-02T18:54:30.574Z,2.15
2022-08-02T18:57:04.286Z,1.95
2022-08-02T18:59:51.501Z,2.10
2022-08-02T19:02:22.044Z,1.33
2022-08-02T19:04:53.374Z,1.60
2022-08-02T19:07:22.441Z,1.95
2022-08-02T19:09:50.696Z,3.60
2022-08-02T19:12:28.436Z,4.05
2022-08-02T19:14:58.948Z,2.85
2022-08-02T19:17:55.426Z,3.80
2022-08-02T19:20:19.400Z,3.85
2022-08-02T19:22:50.077Z,2.47
2022-08-02T19:25:27.732Z,2.08
2022-08-02T19:27:56.452Z,3.67
2022-08-02T19:30:25.948Z,3.50
2022-08-02T19:33:00.270Z,3.85
2022-08-02T19:36:01.950Z,3.63
2022-08-02T19:38:31.815Z,6.15
2022-08-02T19:41:00.043Z,4.38
2022-08-02T19:44:25.926Z,4.43
2022-08-02T19:46:18.455Z,5.10
2022-08-02T19:48:47.862Z,4.43
2022-08-02T19:51:15.981Z,2.90
2022-08-02T19:54:03.932Z,4.80
2022-08-02T19:56:32.013Z,4.03
2022-08-02T19:59:02.905Z,5.68
2022-08-02T20:01:46.342Z,4.43
2022-08-02T20:04:22.980Z,3.63
2022-08-02T20:06:51.770Z,3.30
2022-08-02T20:09:23.031Z,3.47
2022-08-02T20:11:54.997Z,3.15
2022-08-02T20:14:26.567Z,3.20
2022-08-02T20:16:55.115Z,3.10
2022-08-02T20:19:25.216Z,2.20
2022-08-02T20:21:59.664Z,3.13
2022-08-02T20:24:29.755Z,3.65
2022-08-02T20:26:59.395Z,2.58
2022-08-02T20:29:44.483Z,2.55
2022-08-02T20:32:23.409Z,2.60
2022-08-02T20:34:54.045Z,2.40
2022-08-02T20:38:01.317Z,3.00
2022-08-02T20:40:17.011Z,2.70
2022-08-02T20:43:00.660Z,3.67
2022-08-02T20:45:28.932Z,2.80
2022-08-02T20:48:01.738Z,3.08
2022-08-02T20:50:50.811Z,3.13
2022-08-02T20:53:23.531Z,2.92
2022-08-02T20:55:55.972Z,3.40
2022-08-02T20:58:27.017Z,2.97
2022-08-02T21:00:59.186Z,3.35
2022-08-02T21:03:38.812Z,2.20
2022-08-02T21:06:17.777Z,2.25
2022-08-02T21:08:49.302Z,2.42
2022-08-02T21:11:17.644Z,2.60
2022-08-02T21:13:46.424Z,2.80
2022-08-02T21:16:18.329Z,3.17
2022-08-02T21:18:47.538Z,4.30
2022-08-02T21:21:16.501Z,3.03
2022-08-02T21:23:48.993Z,3.25
2022-08-02T21:26:25.905Z,4.00
2022-08-02T21:29:00.984Z,3.50
2022-08-02T21:31:33.470Z,4.57
2022-08-02T21:34:21.751Z,5.45
2022-08-02T21:36:52.464Z,5.32
2022-08-02T21:39:21.867Z,4.68
2022-08-02T21:41:50.392Z,4.22
2022-08-02T21:44:19.804Z,4.10
2022-08-02T21:46:49.374Z,3.22
2022-08-02T21:49:18.559Z,2.90
2022-08-02T21:51:49.633Z,3.30
2022-08-02T21:54:20.118Z,2.97
2022-08-02T21:56:52.123Z,2.55
2022-08-02T21:59:26.369Z,2.60
2022-08-02T22:01:56.522Z,2.10
2022-08-02T22:04:26.182Z,2.30
2022-08-02T22:06:54.897Z,1.77
2022-08-02T22:09:44.685Z,1.80
2022-08-02T22:12:18.084Z,2.00
2022-08-02T22:14:53.996Z,2.60
2022-08-02T22:17:52.447Z,2.35
2022-08-02T22:20:14.215Z,2.47
2022-08-02T22:22:43.598Z,2.00
2022-08-02T22:25:26.955Z,2.65
2022-08-02T22:28:35.003Z,2.40
2022-08-02T22:30:52.470Z,2.25
2022-08-02T22:33:42.132Z,2.40
2022-08-02T22:36:15.339Z,2.15
2022-08-02T22:38:45.374Z,2.38
2022-08-02T22:41:16.585Z,2.42
2022-08-02T22:43:46.000Z,1.90
2022-08-02T22:46:15.474Z,2.50
2022-08-02T22:48:45.660Z,2.20
2022-08-02T22:51:14.515Z,1.98
2022-08-02T22:53:43.372Z,2.28
2022-08-02T22:56:12.103Z,2.20
2022-08-02T23:01:30.103Z,2.17
2022-08-02T23:03:58.164Z,2.20
2022-08-02T23:06:26.130Z,1.98
2022-08-02T23:08:54.181Z,1.88
2022-08-02T23:11:23.183Z,1.92
2022-08-02T23:13:51.294Z,2.25
2022-08-02T23:16:39.743Z,2.00
2022-08-02T23:19:26.685Z,2.10
2022-08-02T23:22:02.692Z,5.60
2022-08-02T23:24:33.198Z,2.20
2022-08-02T23:27:02.814Z,1.88
2022-08-02T23:29:30.829Z,2.15
2022-08-02T23:31:59.156Z,5.78
2022-08-02T23:34:28.688Z,2.00
2022-08-02T23:36:56.940Z,2.22
2022-08-02T23:39:24.933Z,2.20
2022-08-02T23:41:55.291Z,2.67
2022-08-02T23:44:23.988Z,2.00
2022-08-02T23:46:52.696Z,2.00
2022-08-02T23:49:21.355Z,2.20
2022-08-02T23:51:51.694Z,1.80
2022-08-02T23:54:20.543Z,2.00
2022-08-02T23:56:48.551Z,1.80
2022-08-02T23:59:16.662Z,1.60
